^^
B2 Weather Station Historical Data
Daily Summary for April 11, 2019 Units:  English    Metric   Both
Daily Weekly Monthly Yearly Custom
  High: Low: Average:
Temperature: 73.6 °F 40.5 °F 55.7 °F
Dew Point: 59.3 °F 34.1 °F 46.3 °F
Humidity: 89% 59% 72%
Wind Speed: 25.3mph 0.0mph 14.6mph
Wind Gust: 18.0mph - -
Wind- - ESE
Pressure: 29.84 in 29.51 in -
Precipitation: 0.06 in    
Historical Graphs
 
 
Tabular Data for April 11, 2019
Time Temperature Dew Point Pressure Wind Wind Speed Wind Gust Humidity Rainfall Rate (Hourly) solar
00:04 42.1 °F 37.6 °F 29.84 in East 18.0 mph 13.9 mph 84% 0.00 in 0.00 W/m2
00:09 41.9 °F 37.4 °F 29.84 in ENE 22.0 mph 13.6 mph 84% 0.00 in 0.00 W/m2
00:14 41.9 °F 37.4 °F 29.84 in ENE 18.4 mph 14.6 mph 84% 0.00 in 0.00 W/m2
00:19 41.8 °F 37.3 °F 29.84 in ENE 19.6 mph 13.4 mph 84% 0.00 in 0.00 W/m2
00:24 41.8 °F 37.3 °F 29.84 in ENE 21.9 mph 12.7 mph 84% 0.00 in 0.00 W/m2
00:29 41.7 °F 37.2 °F 29.84 in ENE 19.0 mph 11.4 mph 84% 0.00 in 0.00 W/m2
00:34 41.6 °F 36.8 °F 29.84 in ENE 22.0 mph 14.8 mph 83% 0.00 in 0.00 W/m2
00:39 41.5 °F 36.7 °F 29.84 in ENE 16.1 mph 13.6 mph 83% 0.00 in 0.00 W/m2
00:44 41.4 °F 36.6 °F 29.84 in East 20.7 mph 14.0 mph 83% 0.00 in 0.00 W/m2
00:49 41.4 °F 36.3 °F 29.84 in East 19.6 mph 16.2 mph 82% 0.00 in 0.00 W/m2
00:54 41.3 °F 36.2 °F 29.83 in ENE 17.3 mph 15.2 mph 82% 0.00 in 0.00 W/m2
00:59 41.3 °F 36.2 °F 29.83 in NE 20.7 mph 14.5 mph 82% 0.00 in 0.00 W/m2
01:04 41.3 °F 36.2 °F 29.83 in ENE 17.0 mph 14.4 mph 82% 0.00 in 0.00 W/m2
01:09 41.1 °F 36.0 °F 29.83 in ENE 17.3 mph 14.5 mph 82% 0.00 in 0.00 W/m2
01:14 41.1 °F 35.7 °F 29.83 in East 23.0 mph 15.1 mph 81% 0.00 in 0.00 W/m2
01:19 41.0 °F 35.9 °F 29.82 in East 18.4 mph 14.3 mph 82% 0.00 in 0.00 W/m2
01:24 40.9 °F 35.8 °F 29.82 in East 18.4 mph 11.8 mph 82% 0.00 in 0.00 W/m2
01:29 40.9 °F 35.8 °F 29.82 in East 23.0 mph 16.1 mph 82% 0.00 in 0.00 W/m2
01:34 40.8 °F 35.4 °F 29.81 in ENE 21.9 mph 13.8 mph 81% 0.00 in 0.00 W/m2
01:39 40.9 °F 35.5 °F 29.80 in East 19.6 mph 14.7 mph 81% 0.00 in 0.00 W/m2
01:44 40.8 °F 35.4 °F 29.81 in East 19.6 mph 13.8 mph 81% 0.00 in 0.00 W/m2
01:49 40.9 °F 35.5 °F 29.81 in ENE 15.0 mph 10.5 mph 81% 0.00 in 0.00 W/m2
01:54 40.9 °F 35.2 °F 29.80 in East 21.9 mph 14.1 mph 80% 0.00 in 0.00 W/m2
01:59 40.9 °F 35.2 °F 29.80 in ENE 17.3 mph 15.9 mph 80% 0.00 in 0.00 W/m2
02:04 40.9 °F 35.2 °F 29.81 in ESE 19.0 mph 14.1 mph 80% 0.00 in 0.00 W/m2
02:09 41.0 °F 35.0 °F 29.80 in East 18.4 mph 13.1 mph 79% 0.00 in 0.00 W/m2
02:14 41.0 °F 35.0 °F 29.80 in ESE 17.3 mph 13.6 mph 79% 0.00 in 0.00 W/m2
02:19 41.1 °F 34.8 °F 29.80 in East 20.7 mph 14.7 mph 78% 0.00 in 0.00 W/m2
02:24 41.3 °F 34.6 °F 29.81 in East 14.0 mph 13.7 mph 77% 0.00 in 0.00 W/m2
02:29 41.5 °F 34.5 °F 29.81 in East 19.6 mph 15.9 mph 76% 0.00 in 0.00 W/m2
02:34 41.5 °F 34.8 °F 29.81 in ENE 12.7 mph 8.7 mph 77% 0.00 in 0.00 W/m2
02:39 41.3 °F 34.6 °F 29.81 in East 21.9 mph 16.5 mph 77% 0.00 in 0.00 W/m2
02:44 41.4 °F 34.7 °F 29.81 in East 12.7 mph 9.9 mph 77% 0.00 in 0.00 W/m2
02:49 41.4 °F 34.1 °F 29.80 in ESE 21.9 mph 13.8 mph 75% 0.00 in 0.00 W/m2
02:54 41.4 °F 34.4 °F 29.81 in East 22.0 mph 11.8 mph 76% 0.00 in 0.00 W/m2
02:59 41.4 °F 34.4 °F 29.81 in ENE 18.4 mph 13.3 mph 76% 0.00 in 0.00 W/m2
03:04 41.3 °F 34.3 °F 29.80 in East 18.4 mph 14.1 mph 76% 0.00 in 0.00 W/m2
03:09 41.3 °F 34.6 °F 29.80 in ESE 16.1 mph 12.8 mph 77% 0.00 in 0.00 W/m2
03:14 41.2 °F 34.5 °F 29.80 in East 18.4 mph 14.6 mph 77% 0.00 in 0.00 W/m2
03:19 41.2 °F 34.5 °F 29.80 in East 18.4 mph 13.6 mph 77% 0.00 in 0.00 W/m2
03:24 41.1 °F 34.4 °F 29.80 in ESE 21.9 mph 15.3 mph 77% 0.00 in 0.00 W/m2
03:29 41.1 °F 34.4 °F 29.80 in East 23.0 mph 17.6 mph 77% 0.00 in 0.00 W/m2
03:35 41.1 °F 34.8 °F 29.80 in East 17.3 mph 13.0 mph 78% 0.00 in 0.00 W/m2
03:40 41.0 °F 34.7 °F 29.79 in East 19.6 mph 10.3 mph 78% 0.00 in 0.00 W/m2
03:44 40.9 °F 34.6 °F 29.79 in East 16.1 mph 13.6 mph 78% 0.00 in 0.00 W/m2
03:49 40.9 °F 34.6 °F 29.78 in East 20.7 mph 16.3 mph 78% 0.00 in 0.00 W/m2
03:54 40.9 °F 34.6 °F 29.78 in East 19.6 mph 13.1 mph 78% 0.00 in 0.00 W/m2
03:59 41.0 °F 34.7 °F 29.79 in East 21.9 mph 13.8 mph 78% 0.00 in 0.00 W/m2
04:04 41.0 °F 34.7 °F 29.78 in East 24.2 mph 15.9 mph 78% 0.00 in 0.00 W/m2
04:09 40.9 °F 34.9 °F 29.78 in East 16.1 mph 11.4 mph 79% 0.00 in 0.00 W/m2
04:14 40.9 °F 34.6 °F 29.77 in ESE 21.9 mph 17.0 mph 78% 0.00 in 0.00 W/m2
04:19 40.9 °F 34.6 °F 29.77 in East 20.7 mph 14.0 mph 78% 0.00 in 0.00 W/m2
04:24 40.8 °F 34.8 °F 29.77 in ESE 20.7 mph 15.1 mph 79% 0.00 in 0.00 W/m2
04:29 40.7 °F 34.7 °F 29.77 in East 21.9 mph 13.0 mph 79% 0.00 in 0.00 W/m2
04:34 40.7 °F 34.7 °F 29.76 in ENE 24.2 mph 12.5 mph 79% 0.00 in 0.00 W/m2
04:39 40.6 °F 34.6 °F 29.76 in ESE 21.9 mph 14.6 mph 79% 0.00 in 0.00 W/m2
04:44 40.6 °F 34.6 °F 29.76 in East 17.3 mph 14.0 mph 79% 0.00 in 0.00 W/m2
04:49 40.5 °F 34.5 °F 29.76 in ENE 18.4 mph 12.1 mph 79% 0.00 in 0.00 W/m2
04:54 40.5 °F 34.5 °F 29.76 in ESE 15.0 mph 11.1 mph 79% 0.00 in 0.00 W/m2
04:59 40.5 °F 34.5 °F 29.77 in East 18.4 mph 11.5 mph 79% 0.00 in 0.00 W/m2
05:04 40.5 °F 34.8 °F 29.76 in East 18.4 mph 10.6 mph 80% 0.00 in 0.00 W/m2
05:09 40.5 °F 34.5 °F 29.77 in East 17.3 mph 12.2 mph 79% 0.00 in 0.00 W/m2
05:14 40.5 °F 34.5 °F 29.77 in East 15.0 mph 11.3 mph 79% 0.00 in 0.00 W/m2
05:19 40.6 °F 34.6 °F 29.77 in East 14.0 mph 11.7 mph 79% 0.00 in 0.00 W/m2
05:24 40.7 °F 34.7 °F 29.77 in East 19.6 mph 11.4 mph 79% 0.00 in 0.00 W/m2
05:29 40.7 °F 34.7 °F 29.77 in ENE 14.0 mph 12.5 mph 79% 0.00 in 0.00 W/m2
05:34 40.8 °F 34.8 °F 29.77 in East 16.1 mph 14.0 mph 79% 0.00 in 0.00 W/m2
05:39 40.8 °F 34.8 °F 29.77 in East 15.0 mph 9.7 mph 79% 0.00 in 0.00 W/m2
05:44 40.8 °F 34.5 °F 29.77 in East 18.4 mph 9.7 mph 78% 0.00 in 0.00 W/m2
05:49 40.7 °F 34.7 °F 29.76 in East 19.6 mph 12.7 mph 79% 0.00 in 0.00 W/m2
05:55 40.7 °F 34.7 °F 29.76 in ENE 19.6 mph 13.3 mph 79% 0.00 in 0.00 W/m2
05:59 40.8 °F 34.8 °F 29.76 in East 15.0 mph 12.3 mph 79% 0.00 in 0.00 W/m2
06:05 40.8 °F 34.8 °F 29.76 in ENE 15.0 mph 10.7 mph 79% 0.00 in 0.00 W/m2
06:09 40.7 °F 34.7 °F 29.76 in East 19.6 mph 13.7 mph 79% 0.00 in 0.00 W/m2
06:14 40.7 °F 34.7 °F 29.76 in East 15.0 mph 11.7 mph 79% 0.00 in 0.00 W/m2
06:19 40.6 °F 34.6 °F 29.75 in East 18.4 mph 13.2 mph 79% 0.00 in 0.00 W/m2
06:24 40.7 °F 34.7 °F 29.75 in East 16.1 mph 13.6 mph 79% 0.00 in 0.00 W/m2
06:29 40.7 °F 34.7 °F 29.75 in ENE 13.8 mph 11.3 mph 79% 0.00 in 7.00 W/m2
06:34 40.5 °F 34.8 °F 29.75 in ENE 12.7 mph 8.8 mph 80% 0.00 in 12.00 W/m2
06:39 40.5 °F 34.8 °F 29.75 in East 16.1 mph 10.1 mph 80% 0.00 in 16.00 W/m2
06:44 40.7 °F 35.0 °F 29.75 in East 13.8 mph 10.2 mph 80% 0.00 in 21.00 W/m2
06:49 40.7 °F 35.0 °F 29.76 in ENE 12.7 mph 8.5 mph 80% 0.00 in 28.00 W/m2
06:54 40.6 °F 34.9 °F 29.76 in ENE 13.0 mph 10.6 mph 80% 0.00 in 33.00 W/m2
06:59 40.7 °F 35.3 °F 29.75 in East 13.0 mph 11.8 mph 81% 0.00 in 37.00 W/m2
07:04 40.7 °F 35.3 °F 29.75 in ENE 12.0 mph 9.3 mph 81% 0.00 in 42.00 W/m2
07:09 40.7 °F 35.3 °F 29.75 in ENE 13.8 mph 10.8 mph 81% 0.00 in 51.00 W/m2
07:14 40.8 °F 35.1 °F 29.75 in ENE 13.8 mph 9.1 mph 80% 0.00 in 58.00 W/m2
07:19 41.0 °F 35.3 °F 29.75 in East 15.0 mph 11.3 mph 80% 0.00 in 65.00 W/m2
07:24 41.3 °F 35.3 °F 29.75 in East 15.0 mph 11.9 mph 79% 0.00 in 79.00 W/m2
07:29 41.6 °F 35.2 °F 29.74 in ENE 17.3 mph 13.9 mph 78% 0.00 in 97.00 W/m2
07:34 41.8 °F 35.1 °F 29.74 in East 23.0 mph 14.5 mph 77% 0.00 in 109.00 W/m2
07:39 42.0 °F 35.3 °F 29.75 in East 15.0 mph 10.0 mph 77% 0.00 in 114.00 W/m2
07:44 42.1 °F 35.4 °F 29.74 in East 20.7 mph 10.7 mph 77% 0.00 in 109.00 W/m2
07:49 42.1 °F 35.1 °F 29.74 in ENE 20.7 mph 12.8 mph 76% 0.00 in 109.00 W/m2
07:55 42.2 °F 35.2 °F 29.74 in ESE 18.4 mph 13.9 mph 76% 0.00 in 118.00 W/m2
07:59 42.3 °F 35.6 °F 29.74 in East 19.6 mph 10.5 mph 77% 0.00 in 128.00 W/m2
08:04 42.4 °F 35.7 °F 29.73 in East 23.0 mph 15.9 mph 77% 0.00 in 132.00 W/m2
08:09 42.5 °F 35.8 °F 29.73 in East 20.7 mph 14.6 mph 77% 0.00 in 132.00 W/m2
08:14 42.4 °F 35.7 °F 29.73 in East 20.7 mph 11.8 mph 77% 0.00 in 132.00 W/m2
08:19 42.5 °F 35.8 °F 29.73 in East 20.7 mph 13.8 mph 77% 0.00 in 144.00 W/m2
08:24 42.6 °F 35.9 °F 29.72 in ESE 19.6 mph 14.4 mph 77% 0.00 in 153.00 W/m2
08:29 42.6 °F 35.9 °F 29.72 in ENE 21.9 mph 14.2 mph 77% 0.00 in 165.00 W/m2
08:34 42.8 °F 36.4 °F 29.72 in East 19.6 mph 16.6 mph 78% 0.00 in 167.00 W/m2
08:39 42.9 °F 36.2 °F 29.71 in East 21.9 mph 14.7 mph 77% 0.00 in 167.00 W/m2
08:44 43.1 °F 36.7 °F 29.70 in East 17.3 mph 11.6 mph 78% 0.00 in 172.00 W/m2
08:49 43.2 °F 36.8 °F 29.70 in East 18.4 mph 11.8 mph 78% 0.00 in 192.00 W/m2
08:54 43.5 °F 37.1 °F 29.70 in ESE 20.7 mph 13.7 mph 78% 0.00 in 220.00 W/m2
08:59 43.7 °F 37.0 °F 29.70 in ESE 25.3 mph 18.0 mph 77% 0.00 in 262.00 W/m2
09:04 44.3 °F 37.9 °F 29.70 in East 16.1 mph 11.6 mph 78% 0.00 in 297.00 W/m2
09:10 44.8 °F 38.0 °F 29.69 in SE 18.4 mph 13.8 mph 77% 0.00 in 288.00 W/m2
09:14 44.8 °F 37.7 °F 29.69 in East 21.9 mph 16.1 mph 76% 0.00 in 274.00 W/m2
09:19 45.1 °F 38.0 °F 29.69 in East 20.7 mph 12.9 mph 76% 0.00 in 274.00 W/m2
09:25 45.4 °F 38.3 °F 29.68 in East 24.2 mph 16.7 mph 76% 0.00 in 285.00 W/m2
09:29 45.8 °F 39.0 °F 29.69 in East 21.0 mph 14.5 mph 77% 0.00 in 318.00 W/m2
09:35 46.1 °F 38.6 °F 29.68 in East 18.4 mph 14.1 mph 75% 0.00 in 362.00 W/m2
09:39 46.8 °F 39.6 °F 29.69 in East 13.8 mph 10.6 mph 76% 0.00 in 355.00 W/m2
09:44 47.0 °F 39.1 °F 29.69 in ESE 19.6 mph 14.5 mph 74% 0.00 in 373.00 W/m2
09:49 47.4 °F 39.5 °F 29.69 in East 18.4 mph 14.5 mph 74% 0.00 in 336.00 W/m2
09:54 47.6 °F 39.7 °F 29.69 in East 18.4 mph 14.0 mph 74% 0.00 in 343.00 W/m2
09:59 47.9 °F 39.7 °F 29.68 in ESE 16.1 mph 13.1 mph 73% 0.00 in 371.00 W/m2
10:04 48.2 °F 39.9 °F 29.69 in ESE 13.8 mph 9.0 mph 73% 0.00 in 394.00 W/m2
10:09 48.9 °F 40.6 °F 29.69 in ESE 16.1 mph 11.0 mph 73% 0.00 in 403.00 W/m2
10:14 49.5 °F 40.8 °F 29.69 in East 18.4 mph 12.9 mph 72% 0.00 in 387.00 W/m2
10:19 50.0 °F 42.0 °F 29.68 in East 16.0 mph 11.5 mph 74% 0.00 in 411.00 W/m2
10:24 50.3 °F 41.3 °F 29.68 in East 16.1 mph 13.3 mph 71% 0.00 in 464.00 W/m2
10:29 50.6 °F 41.2 °F 29.68 in East 17.3 mph 12.6 mph 70% 0.00 in 457.00 W/m2
10:35 51.1 °F 42.0 °F 29.68 in ESE 17.3 mph 13.0 mph 71% 0.00 in 441.00 W/m2
10:40 51.4 °F 42.3 °F 29.68 in East 13.0 mph 10.4 mph 71% 0.00 in 499.00 W/m2
10:44 51.9 °F 42.4 °F 29.68 in ESE 17.3 mph 13.1 mph 70% 0.00 in 475.00 W/m2
10:49 52.3 °F 42.0 °F 29.68 in ESE 17.3 mph 10.4 mph 68% 0.00 in 455.00 W/m2
10:54 52.9 °F 43.7 °F 29.68 in ESE 12.7 mph 8.5 mph 71% 0.00 in 566.00 W/m2
10:59 53.5 °F 43.6 °F 29.68 in ESE 11.5 mph 8.5 mph 69% 0.00 in 503.00 W/m2
11:04 53.9 °F 43.6 °F 29.67 in ENE 15.0 mph 10.3 mph 68% 0.00 in 448.00 W/m2
11:09 54.0 °F 43.7 °F 29.66 in East 17.3 mph 8.5 mph 68% 0.00 in 464.00 W/m2
11:14 54.4 °F 44.1 °F 29.67 in ESE 12.7 mph 10.0 mph 68% 0.00 in 396.00 W/m2
11:19 54.6 °F 44.2 °F 29.66 in East 17.3 mph 9.5 mph 68% 0.00 in 424.00 W/m2
11:24 54.7 °F 44.3 °F 29.66 in East 18.4 mph 10.5 mph 68% 0.00 in 462.00 W/m2
11:29 55.3 °F 44.5 °F 29.66 in East 12.7 mph 9.8 mph 67% 0.00 in 448.00 W/m2
11:34 55.3 °F 44.9 °F 29.66 in ESE 16.1 mph 9.0 mph 68% 0.00 in 436.00 W/m2
11:39 55.6 °F 45.2 °F 29.66 in East 13.0 mph 9.3 mph 68% 0.00 in 464.00 W/m2
11:44 55.8 °F 45.0 °F 29.65 in ESE 13.8 mph 11.0 mph 67% 0.00 in 475.00 W/m2
11:49 56.2 °F 45.4 °F 29.65 in East 13.8 mph 12.4 mph 67% 0.00 in 570.00 W/m2
11:54 56.6 °F 45.8 °F 29.65 in ESE 13.8 mph 6.2 mph 67% 0.00 in 527.00 W/m2
11:59 57.2 °F 46.3 °F 29.64 in East 11.5 mph 9.6 mph 67% 0.00 in 497.00 W/m2
12:04 57.4 °F 46.1 °F 29.64 in East 13.8 mph 9.3 mph 66% 0.00 in 497.00 W/m2
12:10 57.6 °F 46.3 °F 29.64 in East 13.8 mph 9.2 mph 66% 0.00 in 476.00 W/m2
12:14 57.7 °F 46.4 °F 29.63 in East 12.0 mph 10.4 mph 66% 0.00 in 427.00 W/m2
12:19 57.9 °F 46.6 °F 29.63 in East 16.1 mph 8.4 mph 66% 0.00 in 461.00 W/m2
12:24 58.3 °F 47.0 °F 29.63 in ESE 13.8 mph 9.9 mph 66% 0.00 in 510.00 W/m2
12:29 58.6 °F 46.9 °F 29.63 in ENE 13.8 mph 10.3 mph 65% 0.00 in 506.00 W/m2
12:34 58.8 °F 47.1 °F 29.62 in East 16.1 mph 10.1 mph 65% 0.00 in 497.00 W/m2
12:39 59.0 °F 47.7 °F 29.62 in East 12.7 mph 8.5 mph 66% 0.00 in 461.00 W/m2
12:44 59.5 °F 47.7 °F 29.62 in East 11.5 mph 7.6 mph 65% 0.00 in 441.00 W/m2
12:49 60.0 °F 47.8 °F 29.62 in East 10.0 mph 7.1 mph 64% 0.00 in 431.00 W/m2
12:54 60.3 °F 48.5 °F 29.61 in East 15.0 mph 9.7 mph 65% 0.00 in 485.00 W/m2
12:59 60.6 °F 48.4 °F 29.62 in East 11.5 mph 9.3 mph 64% 0.00 in 503.00 W/m2
13:04 61.1 °F 48.8 °F 29.61 in East 15.0 mph 9.5 mph 64% 0.00 in 480.00 W/m2
13:09 61.5 °F 48.8 °F 29.61 in East 13.8 mph 9.7 mph 63% 0.00 in 487.00 W/m2
13:14 61.9 °F 49.2 °F 29.60 in ENE 11.5 mph 8.4 mph 63% 0.00 in 522.00 W/m2
13:19 62.5 °F 49.7 °F 29.60 in East 13.8 mph 8.7 mph 63% 0.00 in 517.00 W/m2
13:24 63.0 °F 49.8 °F 29.60 in ENE 13.8 mph 9.2 mph 62% 0.00 in 599.00 W/m2
13:29 63.8 °F 50.5 °F 29.60 in East 9.2 mph 6.0 mph 62% 0.00 in 619.00 W/m2
13:34 64.9 °F 51.1 °F 29.59 in ENE 12.7 mph 11.4 mph 61% 0.00 in 578.00 W/m2
13:39 65.7 °F 51.9 °F 29.59 in East 10.4 mph 7.4 mph 61% 0.00 in 603.00 W/m2
13:44 66.2 °F 52.3 °F 29.59 in ESE 15.0 mph 9.0 mph 61% 0.00 in 626.00 W/m2
13:49 66.5 °F 52.2 °F 29.58 in East 12.7 mph 10.3 mph 60% 0.00 in 589.00 W/m2
13:54 67.0 °F 52.7 °F 29.58 in East 15.0 mph 11.1 mph 60% 0.00 in 489.00 W/m2
13:59 67.4 °F 53.0 °F 29.58 in ESE 13.8 mph 6.8 mph 60% 0.00 in 454.00 W/m2
14:04 67.3 °F 52.5 °F 29.58 in East 12.7 mph 6.9 mph 59% 0.00 in 374.00 W/m2
14:09 67.5 °F 52.7 °F 29.58 in ENE 10.4 mph 7.2 mph 59% 0.00 in 378.00 W/m2
14:14 67.7 °F 52.9 °F 29.58 in East 13.8 mph 7.8 mph 59% 0.00 in 388.00 W/m2
14:19 67.8 °F 53.4 °F 29.58 in East 11.5 mph 7.7 mph 60% 0.00 in 408.00 W/m2
14:24 68.1 °F 53.2 °F 29.57 in ESE 10.4 mph 8.7 mph 59% 0.00 in 301.00 W/m2
14:29 67.8 °F 53.4 °F 29.57 in ESE 13.8 mph 6.5 mph 60% 0.00 in 309.00 W/m2
14:34 68.0 °F 53.1 °F 29.57 in East 13.8 mph 8.1 mph 59% 0.00 in 257.00 W/m2
14:39 67.9 °F 53.5 °F 29.57 in East 11.5 mph 7.5 mph 60% 0.00 in 246.00 W/m2
14:44 68.1 °F 53.7 °F 29.56 in East 12.7 mph 8.7 mph 60% 0.00 in 216.00 W/m2
14:49 68.4 °F 54.0 °F 29.56 in ESE 11.5 mph 7.5 mph 60% 0.00 in 193.00 W/m2
14:54 68.8 °F 56.1 °F 29.57 in SSE 6.9 mph 5.4 mph 64% 0.00 in 193.00 W/m2
14:59 70.9 °F 58.1 °F 29.56 in SSE 10.4 mph 4.2 mph 64% 0.00 in 169.00 W/m2
15:04 71.9 °F 58.2 °F 29.56 in South 11.5 mph 8.5 mph 62% 0.00 in 167.00 W/m2
15:09 72.4 °F 58.6 °F 29.55 in SSE 13.8 mph 8.9 mph 62% 0.00 in 151.00 W/m2
15:14 72.5 °F 58.3 °F 29.55 in SSE 12.7 mph 8.0 mph 61% 0.00 in 142.00 W/m2
15:19 72.5 °F 58.7 °F 29.55 in SSE 16.0 mph 8.8 mph 62% 0.00 in 151.00 W/m2
15:24 72.6 °F 58.4 °F 29.55 in SSE 10.4 mph 8.6 mph 61% 0.00 in 139.00 W/m2
15:29 72.6 °F 58.8 °F 29.55 in SSE 9.2 mph 5.3 mph 62% 0.00 in 141.00 W/m2
15:34 72.6 °F 58.4 °F 29.54 in SSE 11.5 mph 6.8 mph 61% 0.00 in 137.00 W/m2
15:39 72.6 °F 58.4 °F 29.54 in SE 11.5 mph 8.9 mph 61% 0.00 in 144.00 W/m2
15:44 72.4 °F 58.6 °F 29.54 in SSE 11.0 mph 8.7 mph 62% 0.00 in 146.00 W/m2
15:49 72.5 °F 58.3 °F 29.54 in SSE 14.0 mph 13.5 mph 61% 0.00 in 155.00 W/m2
15:54 72.7 °F 58.5 °F 29.54 in SSE 11.5 mph 7.8 mph 61% 0.00 in 171.00 W/m2
15:59 72.8 °F 58.1 °F 29.54 in SSW 15.0 mph 12.4 mph 60% 0.00 in 176.00 W/m2
16:04 73.0 °F 58.3 °F 29.54 in South 11.5 mph 10.0 mph 60% 0.00 in 211.00 W/m2
16:09 73.3 °F 58.6 °F 29.54 in South 12.7 mph 8.8 mph 60% 0.00 in 199.00 W/m2
16:14 73.3 °F 59.0 °F 29.54 in SSE 11.5 mph 7.1 mph 61% 0.00 in 209.00 W/m2
16:19 73.3 °F 59.0 °F 29.54 in SE 10.4 mph 7.9 mph 61% 0.00 in 171.00 W/m2
16:24 73.3 °F 58.6 °F 29.54 in SSE 13.8 mph 9.8 mph 60% 0.00 in 156.00 W/m2
16:29 73.4 °F 58.7 °F 29.53 in SSE 13.0 mph 6.8 mph 60% 0.00 in 165.00 W/m2
16:34 73.4 °F 59.1 °F 29.53 in SSE 17.3 mph 8.8 mph 61% 0.00 in 156.00 W/m2
16:39 73.3 °F 58.6 °F 29.53 in SSW 17.3 mph 15.1 mph 60% 0.00 in 169.00 W/m2
16:44 73.5 °F 58.8 °F 29.52 in SSE 11.5 mph 11.6 mph 60% 0.00 in 167.00 W/m2
16:49 73.5 °F 58.8 °F 29.52 in SE 19.6 mph 12.6 mph 60% 0.00 in 148.00 W/m2
16:54 73.5 °F 59.2 °F 29.52 in SE 16.1 mph 7.8 mph 61% 0.00 in 142.00 W/m2
16:59 73.6 °F 58.9 °F 29.52 in SSE 18.4 mph 9.4 mph 60% 0.00 in 137.00 W/m2
17:04 73.6 °F 59.3 °F 29.52 in SSE 11.5 mph 6.1 mph 61% 0.00 in 120.00 W/m2
17:09 73.4 °F 59.1 °F 29.53 in SE 13.0 mph 7.5 mph 61% 0.00 in 128.00 W/m2
17:14 73.4 °F 59.1 °F 29.52 in SSE 13.8 mph 7.6 mph 61% 0.00 in 116.00 W/m2
17:19 73.1 °F 58.8 °F 29.52 in SSE 10.4 mph 7.8 mph 61% 0.00 in 95.00 W/m2
17:24 73.0 °F 59.2 °F 29.53 in South 10.4 mph 7.3 mph 62% 0.00 in 102.00 W/m2
17:29 73.0 °F 59.2 °F 29.53 in SSE 11.5 mph 5.7 mph 62% 0.00 in 95.00 W/m2
17:34 73.0 °F 59.2 °F 29.53 in SSE 8.1 mph 6.4 mph 62% 0.00 in 104.00 W/m2
17:39 73.0 °F 59.2 °F 29.53 in South 10.4 mph 5.7 mph 62% 0.00 in 91.00 W/m2
17:44 73.1 °F 58.8 °F 29.53 in SSE 12.7 mph 5.9 mph 61% 0.00 in 74.00 W/m2
17:49 73.2 °F 58.5 °F 29.53 in SSE 16.1 mph 6.4 mph 60% 0.00 in 79.00 W/m2
17:54 73.2 °F 58.0 °F 29.53 in SSE 12.0 mph 7.4 mph 59% 0.00 in 65.00 W/m2
17:59 73.2 °F 58.0 °F 29.53 in SSE 15.0 mph 6.5 mph 59% 0.00 in 62.00 W/m2
18:04 73.0 °F 57.8 °F 29.53 in South 8.1 mph 5.2 mph 59% 0.00 in 60.00 W/m2
18:09 72.7 °F 58.0 °F 29.53 in SSE 11.5 mph 5.7 mph 60% 0.00 in 56.00 W/m2
18:14 72.4 °F 57.7 °F 29.53 in South 11.5 mph 8.6 mph 60% 0.00 in 42.00 W/m2
18:19 72.3 °F 57.6 °F 29.53 in South 12.7 mph 6.9 mph 60% 0.00 in 39.00 W/m2
18:24 72.5 °F 57.4 °F 29.53 in SSE 11.5 mph 10.0 mph 59% 0.00 in 35.00 W/m2
18:29 72.5 °F 57.4 °F 29.53 in SSE 11.5 mph 5.0 mph 59% 0.00 in 39.00 W/m2
18:34 72.4 °F 57.3 °F 29.53 in SSE 11.5 mph 7.2 mph 59% 0.00 in 44.00 W/m2
18:39 72.0 °F 56.9 °F 29.53 in SSE 9.2 mph 4.5 mph 59% 0.00 in 40.00 W/m2
18:44 71.6 °F 57.0 °F 29.53 in SSE 8.1 mph 4.1 mph 60% 0.00 in 39.00 W/m2
18:49 71.4 °F 57.2 °F 29.53 in SSE 8.1 mph 4.8 mph 61% 0.00 in 35.00 W/m2
18:54 71.2 °F 57.1 °F 29.53 in SSE 8.1 mph 3.9 mph 61% 0.00 in 26.00 W/m2
18:59 70.8 °F 56.7 °F 29.53 in SSE 6.9 mph 4.5 mph 61% 0.00 in 21.00 W/m2
19:04 70.5 °F 56.9 °F 29.53 in SSE 5.8 mph 4.5 mph 62% 0.00 in 14.00 W/m2
19:09 70.1 °F 56.5 °F 29.53 in SSE 5.0 mph 3.5 mph 62% 0.00 in 9.00 W/m2
19:14 69.8 °F 56.6 °F 29.53 in SE 1.2 mph   63% 0.00 in 7.00 W/m2
19:19 69.2 °F 56.5 °F 29.53 in SE 3.5 mph 2.7 mph 64% 0.00 in 5.00 W/m2
19:24 68.9 °F 56.6 °F 29.53 in SE 4.6 mph 3.3 mph 65% 0.00 in 0.00 W/m2
19:29 68.6 °F 56.8 °F 29.53 in SE 4.6 mph 1.5 mph 66% 0.00 in 0.00 W/m2
19:34 68.2 °F 56.8 °F 29.52 in SE 4.6 mph 1.5 mph 67% 0.00 in 0.00 W/m2
19:39 67.8 °F 56.4 °F 29.52 in SE 3.5 mph 1.2 mph 67% 0.00 in 0.00 W/m2
19:44 67.4 °F 56.5 °F 29.52 in SE 3.5 mph 2.1 mph 68% 0.00 in 0.00 W/m2
19:49 67.4 °F 56.9 °F 29.52 in SE 5.8 mph 3.1 mph 69% 0.00 in 0.00 W/m2
19:54 67.4 °F 56.9 °F 29.52 in SE 6.9 mph 4.9 mph 69% 0.00 in 0.00 W/m2
19:59 67.5 °F 57.0 °F 29.52 in SE 5.8 mph 4.3 mph 69% 0.00 in 0.00 W/m2
20:04 67.6 °F 57.1 °F 29.52 in SE 11.5 mph 6.4 mph 69% 0.00 in 0.00 W/m2
20:09 67.9 °F 56.9 °F 29.51 in SSE 10.4 mph 6.8 mph 68% 0.00 in 0.00 W/m2
20:14 68.0 °F 57.0 °F 29.51 in SE 8.1 mph 6.4 mph 68% 0.00 in 0.00 W/m2
20:19 68.0 °F 57.0 °F 29.51 in SE 11.5 mph 6.3 mph 68% 0.00 in 0.00 W/m2
20:24 68.0 °F 57.0 °F 29.51 in SE 11.5 mph 7.8 mph 68% 0.00 in 0.00 W/m2
20:29 67.9 °F 57.4 °F 29.51 in SE 10.4 mph 8.1 mph 69% 0.00 in 0.00 W/m2
20:34 67.9 °F 57.4 °F 29.51 in SE 11.5 mph 9.3 mph 69% 0.00 in 0.00 W/m2
20:39 67.9 °F 57.4 °F 29.51 in SE 11.5 mph 9.6 mph 69% 0.00 in 0.00 W/m2
20:44 68.1 °F 57.1 °F 29.51 in SSE 12.7 mph 7.9 mph 68% 0.00 in 0.00 W/m2
20:49 68.3 °F 57.3 °F 29.51 in SSE 13.8 mph 8.9 mph 68% 0.00 in 0.00 W/m2
20:54 68.5 °F 57.1 °F 29.51 in SSE 11.5 mph 8.0 mph 67% 0.00 in 0.00 W/m2
20:59 68.7 °F 57.3 °F 29.52 in SSE 12.7 mph 8.4 mph 67% 0.00 in 0.00 W/m2
21:04 68.7 °F 57.3 °F 29.51 in SSE 10.4 mph 5.0 mph 67% 0.00 in 0.00 W/m2
21:09 68.6 °F 57.2 °F 29.51 in SSE 9.2 mph 5.5 mph 67% 0.00 in 0.00 W/m2
21:14 68.6 °F 57.2 °F 29.51 in SSE 10.4 mph 4.3 mph 67% 0.00 in 0.00 W/m2
21:19 68.4 °F 57.0 °F 29.51 in SSE 8.1 mph 5.2 mph 67% 0.00 in 0.00 W/m2
21:24 68.4 °F 57.0 °F 29.51 in SSE 10.4 mph 7.3 mph 67% 0.00 in 0.00 W/m2
21:29 68.4 °F 57.0 °F 29.51 in South 11.5 mph 8.7 mph 67% 0.00 in 0.00 W/m2
21:34 68.2 °F 57.2 °F 29.52 in SSE 9.2 mph 7.0 mph 68% 0.00 in 0.00 W/m2
21:39 68.1 °F 57.1 °F 29.52 in SSE 9.2 mph 8.0 mph 68% 0.00 in 0.00 W/m2
21:44 68.1 °F 57.1 °F 29.52 in South 10.4 mph 5.2 mph 68% 0.00 in 0.00 W/m2
21:49 67.8 °F 56.9 °F 29.52 in South 11.5 mph 4.8 mph 68% 0.00 in 0.00 W/m2
21:54 67.7 °F 56.8 °F 29.51 in SSE 5.8 mph 6.0 mph 68% 0.00 in 0.00 W/m2
21:59 67.8 °F 56.9 °F 29.52 in SSE 11.5 mph 5.0 mph 68% 0.00 in 0.00 W/m2
22:04 67.7 °F 56.8 °F 29.51 in SSE 4.0 mph 1.9 mph 68% 0.00 in 0.00 W/m2
22:09 67.4 °F 56.9 °F 29.51 in South 3.5 mph 1.3 mph 69% 0.00 in 0.00 W/m2
22:14 67.0 °F 56.9 °F 29.51 in Calm     70% 0.00 in 0.00 W/m2
22:19 66.7 °F 56.6 °F 29.51 in Calm     70% 0.00 in 0.00 W/m2
22:24 66.6 °F 56.5 °F 29.52 in Calm     70% 0.00 in 0.00 W/m2
22:29 67.0 °F 57.3 °F 29.54 in SW 10.4 mph 8.9 mph 71% 0.00 in 0.00 W/m2
22:34 67.4 °F 57.7 °F 29.54 in SW 10.4 mph 6.0 mph 71% 0.00 in 0.00 W/m2
22:39 67.4 °F 58.1 °F 29.54 in SW 15.0 mph 4.9 mph 72% 0.00 in 0.00 W/m2
22:44 66.4 °F 57.9 °F 29.54 in SW 19.6 mph 10.5 mph 74% 0.00 in 0.00 W/m2
22:49 64.9 °F 57.2 °F 29.56 in SW 17.0 mph 8.6 mph 76% 0.00 in 0.00 W/m2
22:54 63.2 °F 56.6 °F 29.55 in WSW 19.6 mph 15.0 mph 79% 0.01 in 0.00 W/m2
22:59 62.1 °F 56.2 °F 29.56 in SW 19.6 mph 10.3 mph 81% 0.01 in 0.00 W/m2
23:04 61.3 °F 56.1 °F 29.56 in SW 14.0 mph 11.4 mph 83% 0.02 in 0.00 W/m2
23:09 60.8 °F 55.9 °F 29.56 in South 13.8 mph 7.8 mph 84% 0.02 in 0.00 W/m2
23:14 60.6 °F 56.1 °F 29.56 in SW 11.5 mph 7.2 mph 85% 0.02 in 0.00 W/m2
23:19 60.3 °F 56.1 °F 29.55 in SW 10.4 mph 7.7 mph 86% 0.02 in 0.00 W/m2
23:24 60.0 °F 55.8 °F 29.55 in SW 12.0 mph 6.5 mph 86% 0.03 in 0.00 W/m2
23:29 59.8 °F 55.9 °F 29.56 in SW 12.7 mph 8.5 mph 87% 0.03 in 0.00 W/m2
23:34 59.5 °F 55.9 °F 29.56 in WSW 11.5 mph 7.8 mph 88% 0.04 in 0.00 W/m2
23:39 59.1 °F 55.5 °F 29.56 in SW 12.7 mph 9.7 mph 88% 0.04 in 0.00 W/m2
23:44 58.7 °F 55.5 °F 29.56 in SW 11.5 mph 9.0 mph 89% 0.04 in 0.00 W/m2
23:49 58.2 °F 55.0 °F 29.56 in West 15.0 mph 8.4 mph 89% 0.05 in 0.00 W/m2
23:54 57.7 °F 54.5 °F 29.56 in West 11.5 mph 4.6 mph 89% 0.04 in 0.00 W/m2
23:59 57.2 °F 54.0 °F 29.55 in West 15.0 mph 7.1 mph 89% 0.05 in 0.00 W/m2
Bourbonnais, Illinois, USA
Compliments of Weather Underground - 2 mb